Portada
METAR-TAF:

METAR-TAF

Aeroports :

Nakhon Phanom, Tailàndia

latitud: 17-23-02N, longitud: 104-38-35E, altitud: 179 m

Observació

L'informe es va fer fa 42 minuts, a les 09:00 UTC
Vent 3 kt del Sud/Sud-Oest, variant entre Sud/Sud-Est i Oest/Sud-Oest
Temperatura 32°C
Humitat 63%
Pressió 1005 hPa
Visibilitat 10 km o més
Cel ennuvolat a una alçada de 4500 ft

METAR: VTUW 150900Z 21003KT 160V240 9999 BKN045 32/24 Q1005 NOSIG

Hora: 16:42 (09:42 UTC)

Pronòstic

L'informe es va fer fa 4 hores i 42 minuts, a les 05:00 UTC
Pronòstic vàlid del 15 a les 06 UTC al 16 a les 06 UTC
Vent 7 kt del Est/Sud-Est
Visibilitat 10 km o més
Escasses núvols a una alçada de 2500 ft
Núvols disperses a una alçada de 10000 ft

TAF: VTUW 150500Z 1506/1606 12007KT 9999 FEW025 SCT100

Observacions i pronòstics meteorològics de més de 4000 aeroports (METAR i TAF).

Les estacions disponibles són els punts grocs i vermells al mapa.

Posi el ratolí al punt desitjat per veure el nom de l'estació.

Feu clic per veure les observacions i els pronòstics meteorològics.

Per canviar el mapa: feu clic els botons verds amb una creu de color negre per apropar; al botó verd amb un guió per allunyar la imatge; o en les fletxes verdes per a mapes adjacents.


METAR-TAF: